Tiempo atmosférico en la estación meteorológica de Barcelona, Barcelona (25 m.)



Fecha
DESCASC
Temp. máxima en grados centígrados (hora)
DESCASC
Temp. mínima en grados centígrados (hora)
DESCASC
Temp. media en grados centígrados
DESCASC
Racha de viento máxima en m/sg (hora)
DESCASC
Velocidad máxima media en intervalos de 10 minutos(hora)
DESCASC
Precipitaciones diarias en mm
DESCASC
Precipitaciones de 00:00 a 06:00 en mm
DESCASC
Precipitaciones de 06:00 a 12:00 en mm
DESCASC
Precipitaciones de 12:00 a 18:00 en mm
DESCASC
Precipitaciones de 18:00 a 24:00 en mm
DESCASC
20-09-2018 28.1 (12:40) 22.2 (03:00) 25.2 6.67 (18:40) 5.28 (16:40) 0 0 0 0 0
19-09-2018 26.4 (15:20) 20.4 (07:50) 23.4 5.83 (16:20) 4.17 (13:00) 0 0 0 0 0
18-09-2018 25.6 (13:00) 19.5 (09:40) 22.6 9.44 (16:10) 7.5 (14:20) 5.5 0 3.4 2.1 0
17-09-2018 27.4 (13:40) 21.4 (07:10) 24.4 6.94 (06:10) 4.72 (15:50) 0 0 0 0 0
16-09-2018 26.5 (13:30) 21.3 (00:00) 23.9 6.39 (15:10) 5 (15:10) 0.7 0.6 0 0.1 0
15-09-2018 26.7 (13:20) 22.4 (00:00) 24.6 5.83 (15:20) 4.72 (14:20) 0 0 0 0 0
14-09-2018 26.8 (13:20) 20.9 (00:00) 23.8 8.61 (19:10) 6.11 (16:40) 0 0 0 0 0
13-09-2018 26.2 (16:30) 20.2 (00:00) 23.2 10.83 (17:00) 7.78 (14:30) 0 0 0 0 0
12-09-2018 26.6 (15:50) 19 (00:00) 22.8 16.11 (19:30) 6.11 (19:30) 16.7 0 0 0 16.7
11-09-2018 28.7 (13:20) 20.6 (00:00) 24.7 5.28 (17:40) 4.72 (17:30) 0 0 0 0 0
10-09-2018 24.8 (14:20) 21.3 (00:00) 23 5 (01:10) 3.61 (12:50) 0 0 0 0 0
09-09-2018 27 (12:10) 21.9 (00:00) 24.4 6.94 (17:50) 6.11 (23:10) 0 0 0 0 0
08-09-2018 26.7 (14:00) 20.3 (00:00) 23.5 6.11 (13:00) 4.72 (13:00) 0 0 0 0 0
07-09-2018 25.6 (12:30) 20.1 (00:00) 22.9 8.89 (21:50) 6.67 (18:10) 1.3 0 0 0 1.3
06-09-2018 26 (12:30) 18.9 (00:00) 22.4 13.89 (03:30) 8.61 (19:10) 85.9 83.8 0.1 1.3 0.7
05-09-2018 26.2 (14:40) 21.4 (00:00) 23.8 7.5 (20:30) 6.11 (20:30) 0 0 0 0 0
04-09-2018 26.8 (11:40) 22.7 (00:00) 24.8 8.89 (12:50) 7.78 (12:40) 0 0 0 0 0
03-09-2018 26.9 (13:30) 22.6 (00:00) 24.8 9.44 (19:40) 7.78 (19:40) 0 0 0 0 0
02-09-2018 26.8 (14:30) 21.5 (00:00) 24.1 8.61 (19:50) 7.5 (19:50) 0 0 0 0 0
01-09-2018 25.3 (16:00) 22.3 (00:00) 23.8 8.89 (11:00) 7.22 (11:10) 1.4 0 1.4 0 0
31-08-2018 24.1 (23:10) 20.1 (00:00) 22.1 12.5 (08:20) 10 (07:40) 24.2 6.3 17.9 0 0
30-08-2018 27.9 (10:20) 22.9 (00:00) 25.4 10.83 (16:10) 8.06 (15:50) 5.7 0 0 0 5.7
29-08-2018 27.5 (09:20) 23.7 (00:00) 25.6 11.11 (02:20) 8.06 (16:40) 1.8 0.6 0 1.2 0
28-08-2018 28.1 (16:30) 23.7 (00:00) 25.9 12.78 (17:30) 8.06 (15:50) 0 0 0 0 0
27-08-2018 27.6 (14:20) 21.9 (00:00) 24.8 6.94 (13:40) 5.83 (13:50) 0 0 0 0 0
26-08-2018 24.2 (18:50) 20.7 (00:00) 22.5 10.83 (18:00) 8.33 (16:40) 0 0 0 0 0
25-08-2018 26 (11:10) 22 (00:00) 24 10 (17:30) 7.78 (17:40) 0 0 0 0 0
24-08-2018 29 (12:50) 22.9 (00:00) 25.9 6.67 (13:40) 5.56 (13:40) 0 0 0 0 0

Gráficas

Temp. máximas Temp. mínimas Temp. medias Precipitaciones Rachas de viento máximas Velocidades máximas media en intervalos de 10 minutos

Datos horarios

Fecha y hora oficial Temperatura (ºC) Velocidad del viento (km/h) Dirección del viento Racha (km/h) Dirección de racha Precipitación (mm) Presión (hPa) Tendencia (hPa) Humedad (%)
2018-09-22 23:00:00 25.2 4 Oeste 13 Oeste 0 -- -- 78
2018-09-22 22:00:00 25.2 9 Oeste 17 Oeste 0 -- -- 78
2018-09-22 21:00:00 25.2 9 Oeste 21 Sudoeste 0 -- -- 82
2018-09-22 20:00:00 25.3 13 Sudoeste 25 Sudoeste 0 -- -- 80
2018-09-22 19:00:00 26.2 14 Sudoeste 32 Sudoeste 0 -- -- 73
2018-09-22 18:00:00 26.4 21 Sudoeste 32 Sudoeste 0 -- -- 66
2018-09-22 17:00:00 27.2 22 Sudoeste 33 Sudoeste 0 -- -- 59
2018-09-22 16:00:00 26.2 23 Sudoeste 31 Sudoeste 0 -- -- 64
2018-09-22 15:00:00 26.7 20 Sudoeste 31 Sur 0 -- -- 67
2018-09-22 14:00:00 26.1 25 Sur 31 Sur 0 -- -- 73
2018-09-22 13:00:00 26.2 20 Sudoeste 25 Sudoeste 0 -- -- 77
2018-09-22 12:00:00 26.4 9 Sur 14 Sudeste 0 -- -- 78
2018-09-22 11:00:00 26.1 8 Este 11 Este 0 -- -- 75
2018-09-22 10:00:00 25.4 6 Este 9 Este 0 -- -- 74
2018-09-22 09:00:00 22.7 3 Norte 8 Norte 0 -- -- 78
2018-09-22 08:00:00 21.9 5 Norte 8 Norte 0 -- -- 78
2018-09-22 07:00:00 22.2 0 Calma 8 Noroeste 0 -- -- 79
2018-09-22 06:00:00 22 3 Norte 9 Norte 0 -- -- 78
2018-09-22 05:00:00 22.5 6 Norte 10 Norte 0 -- -- 77
2018-09-22 04:00:00 22.5 8 Norte 11 Norte 0 -- -- 78
2018-09-22 03:00:00 22.6 6 Norte 10 Norte 0 -- -- 78
2018-09-22 02:00:00 23.3 4 Norte 8 Norte 0 -- -- 76
2018-09-22 01:00:00 23.4 2 Norte 7 Norte 0 -- -- 74
2018-09-22 00:00:00 23.4 4 Nordeste 14 Este 0 -- -- 76
2018-09-21 23:00:00 23.5 12 Este 20 Este 0 -- -- 78
2018-09-21 22:00:00 23.6 16 Este 22 Este 0 -- -- 84
2018-09-21 21:00:00 23.8 17 Este 19 Este 0 -- -- 86
2018-09-21 20:00:00 23.8 17 Este 24 Este 0 -- -- 88
2018-09-21 19:00:00 23.8 22 Este 27 Este 0 -- -- 90
2018-09-21 18:00:00 24.4 25 Este 28 Este 0 -- -- 90
2018-09-21 17:00:00 26.3 16 Este 31 Este 0 -- -- 85
2018-09-21 16:00:00 26.3 15 Sur 25 Sur 0 -- -- 81
2018-09-21 15:00:00 26.4 15 Sur 23 Sur 0 -- -- 81
2018-09-21 14:00:00 26.9 13 Sur 21 Sudoeste 0 -- -- 76
2018-09-21 13:00:00 27.4 12 Sur 17 Sudoeste 0 -- -- 69
2018-09-21 12:00:00 27.4 7 Sur 12 Sudeste 0 -- -- 59
2018-09-21 11:00:00 27.1 6 Sudeste 9 Sudeste 0 -- -- 57
2018-09-21 10:00:00 25.4 5 Sudeste 8 Sudeste 0 -- -- 58
2018-09-21 09:00:00 23.9 4 Norte 5 Norte 0 -- -- 61
2018-09-21 08:00:00 22.2 0 Calma 6 Norte 0 -- -- 66
2018-09-21 07:00:00 21.9 2 Este 7 Norte 0 -- -- 70
2018-09-21 06:00:00 21.8 0 Calma 7 Noroeste 0 -- -- 72
2018-09-21 05:00:00 22.2 3 Noroeste 6 Noroeste 0 -- -- 73
2018-09-21 04:00:00 22.2 4 Norte 8 Norte 0 -- -- 75
2018-09-21 03:00:00 23 0 Calma 5 Norte 0 -- -- 71
2018-09-21 02:00:00 23.3 5 Norte 8 Norte 0 -- -- 70
2018-09-21 01:00:00 23.8 6 Norte 7 Norte 0 -- -- 69
2018-09-21 00:00:00 24 4 Este 8 Oeste 0 -- -- 74
2018-09-20 23:00:00 24.8 9 Oeste 12 Oeste 0 -- -- 68
2018-09-20 22:00:00 25 7 Oeste 15 Oeste 0 -- -- 71
2018-09-20 21:00:00 25.4 9 Oeste 22 Sudoeste 0 -- -- 66
2018-09-20 20:00:00 25.9 10 Sudoeste 18 Oeste 0 -- -- 60
2018-09-20 19:00:00 26.8 15 Sudoeste 24 Sudoeste 0 -- -- 60
2018-09-20 18:00:00 26.9 17 Sudoeste 22 Sudoeste 0 -- -- 63
2018-09-20 17:00:00 26.8 17 Sudoeste 22 Sudoeste 0 -- -- 66
2018-09-20 16:00:00 27.2 16 Sudoeste 22 Sudoeste 0 -- -- 60
2018-09-20 15:00:00 26.3 17 Sudoeste 21 Sudoeste 0 -- -- 68
2018-09-20 14:00:00 25.9 18 Sudoeste 22 Sur 0 -- -- 76
2018-09-20 13:00:00 26.9 11 Sur 14 Sudoeste 0 -- -- 67
2018-09-20 12:00:00 27.3 6 Sur 11 Sur 0 -- -- 64
2018-09-20 11:00:00 26.3 5 Sur 10 Noroeste 0 -- -- 66
2018-09-20 10:00:00 25.1 7 Norte 17 Norte 0 -- -- 67
2018-09-20 09:00:00 23.4 12 Norte 19 Noroeste 0 -- -- 73
2018-09-20 08:00:00 22.5 12 Norte 18 Noroeste 0 -- -- 74
2018-09-20 07:00:00 22.8 12 Norte 18 Norte 0 -- -- 72
2018-09-20 06:00:00 22.5 9 Noroeste 17 Norte 0 -- -- 73
2018-09-20 05:00:00 22.6 5 Noroeste 13 Norte 0 -- -- 77
2018-09-20 04:00:00 22.6 2 Noroeste 7 Norte 0 -- -- 82
2018-09-20 03:00:00 22.2 4 Norte 7 Norte 0 -- -- 86
2018-09-20 02:00:00 22.6 3 Norte 6 Sudoeste 0 -- -- 86
2018-09-20 01:00:00 23.2 4 Sudoeste 9 Oeste 0 -- -- 83
2018-09-20 00:00:00 23.3 4 Oeste 12 Oeste 0 -- -- 86
2018-09-19 23:00:00 23.3 5 Oeste 9 Sudoeste 0 -- -- 86
2018-09-19 22:00:00 23.3 3 Sur 8 Sudeste 0 -- -- 86
2018-09-19 21:00:00 23.3 5 Sudeste 10 Sudeste 0 -- -- 84
2018-09-19 20:00:00 23.8 4 Sudeste 10 Sur 0 -- -- 82
2018-09-19 19:00:00 24.2 5 Sur 13 Sudeste 0 -- -- 81
2018-09-19 18:00:00 25.1 9 Sudeste 15 Sudeste 0 -- -- 78
2018-09-19 17:00:00 25.5 11 Sur 21 Sudeste 0 -- -- 78
2018-09-19 16:00:00 25.7 13 Sudeste 20 Sudeste 0 -- -- 75
2018-09-19 15:00:00 26.1 12 Sudeste 18 Sudeste 0 -- -- 73
2018-09-19 14:00:00 26.2 12 Sudeste 16 Sudeste 0 -- -- 72
2018-09-19 13:00:00 25.8 15 Sudeste 19 Sudeste 0 -- -- 73
2018-09-19 12:00:00 25.7 8 Sudeste 12 Este 0 -- -- 68
2018-09-19 11:00:00 25 6 Este 17 Norte 0 -- -- 68
2018-09-19 10:00:00 23.2 8 Norte 17 Norte 0 -- -- 72
2018-09-19 09:00:00 22.1 9 Norte 15 Norte 0 -- -- 78
2018-09-19 08:00:00 20.6 10 Norte 17 Norte 0 -- -- 85
2018-09-19 07:00:00 20.7 8 Norte 13 Norte 0 -- -- 86
2018-09-19 06:00:00 20.8 8 Norte 14 Norte 0 -- -- 86
2018-09-19 05:00:00 20.8 7 Norte 16 Norte 0 -- -- 86
2018-09-19 04:00:00 20.8 9 Norte 15 Norte 0 -- -- 89
2018-09-19 03:00:00 21 8 Norte 12 Norte 0 -- -- 89
2018-09-19 02:00:00 21.6 6 Norte 12 Nordeste 0 -- -- 88
2018-09-19 01:00:00 21.8 8 Norte 12 Nordeste 0 -- -- 87
2018-09-19 00:00:00 22.1 5 Nordeste 8 Nordeste 0 -- -- 87
2018-09-18 23:00:00 22.6 0 Calma 5 Nordeste 0 -- -- 87
2018-09-18 22:00:00 22.7 3 Nordeste 6 Nordeste 0 -- -- 86
2018-09-18 21:00:00 22.7 0 Calma 9 Este 0 -- -- 85
2018-09-18 20:00:00 22.8 6 Este 14 Nordeste 0 -- -- 86
2018-09-18 19:00:00 23.6 9 Este 15 Sudeste 0 -- -- 82
2018-09-18 18:00:00 23.6 12 Sudeste 23 Sudeste 0 -- -- 88
2018-09-18 17:00:00 22.7 2 Sudeste 34 Este 2.1 -- -- 92
2018-09-18 16:00:00 23.4 24 Este 31 Este 0 -- -- 87
2018-09-18 15:00:00 23.3 25 Este 31 Este 0 -- -- 87
2018-09-18 14:00:00 23.6 26 Este 30 Este 0 -- -- 80
2018-09-18 13:00:00 25 6 Este 12 Noroeste 0 -- -- 71
2018-09-18 12:00:00 22.9 8 Norte 16 Norte 0 -- -- 77
2018-09-18 11:00:00 20.6 9 Norte 23 Norte 0 -- -- 89
2018-09-18 10:00:00 19.7 12 Norte 21 Noroeste 0.5 -- -- 93
2018-09-18 09:00:00 20.5 9 Nordeste 21 Sudoeste 2.5 -- -- 94
2018-09-18 08:00:00 20.5 9 Norte 17 Norte 0.4 -- -- 90
2018-09-18 07:00:00 21.3 10 Norte 16 Nordeste 0 -- -- 80
2018-09-18 06:00:00 20.9 9 Norte 23 Norte 0 -- -- 79
2018-09-18 05:00:00 20.9 11 Norte 20 Norte 0 -- -- 80
2018-09-18 04:00:00 21.4 9 Norte 16 Norte 0 -- -- 80
2018-09-18 03:00:00 21.4 9 Norte 15 Norte 0 -- -- 81
2018-09-18 02:00:00 21.7 9 Norte 18 Norte 0 -- -- 80
2018-09-18 01:00:00 22.5 8 Norte 12 Norte 0 -- -- 78
2018-09-18 00:00:00 23 5 Nordeste 15 Este 0 -- -- 78
2018-09-17 23:00:00 23.4 12 Este 17 Este 0 -- -- 78
2018-09-17 22:00:00 23.4 10 Este 17 Este 0 -- -- 77
2018-09-17 21:00:00 23.5 13 Este 17 Este 0 -- -- 76
2018-09-17 20:00:00 23.8 13 Este 20 Este 0 -- -- 76
2018-09-17 19:00:00 24.7 17 Este 20 Este 0 -- -- 70
2018-09-17 18:00:00 25.7 15 Sudeste 20 Sudeste 0 -- -- 70
2018-09-17 17:00:00 26.5 13 Sudeste 20 Sudeste 0 -- -- 68
2018-09-17 16:00:00 26.5 17 Sudeste 21 Sudeste 0 -- -- 68
2018-09-17 15:00:00 27 16 Sudeste 19 Sudeste 0 -- -- 67
2018-09-17 14:00:00 27 14 Sudeste 17 Sudeste 0 -- -- 66
2018-09-17 13:00:00 26.8 13 Sudeste 18 Sudeste 0 -- -- 67
2018-09-17 12:00:00 26 10 Este 17 Nordeste 0 -- -- 76
2018-09-17 11:00:00 25.3 10 Este 13 Este 0 -- -- 77
2018-09-17 10:00:00 24 7 Norte 17 Norte 0 -- -- 75
2018-09-17 09:00:00 22.5 12 Norte 19 Norte 0 -- -- 82
2018-09-17 08:00:00 21.7 6 Norte 13 Norte 0 -- -- 89
2018-09-17 07:00:00 21.5 7 Norte 25 Norte 0 -- -- 89
2018-09-17 06:00:00 22.1 7 Norte 13 Norte 0 -- -- 88
2018-09-17 05:00:00 22.1 8 Norte 12 Norte 0 -- -- 88
2018-09-17 04:00:00 22.3 5 Norte 11 Norte 0 -- -- 88
2018-09-17 03:00:00 22.8 4 Norte 9 Norte 0 -- -- 88
2018-09-17 02:00:00 23 5 Norte 8 Nordeste 0 -- -- 88
2018-09-17 01:00:00 23.7 4 Nordeste 11 Nordeste 0 -- -- 86
2018-09-17 00:00:00 23.7 8 Sudeste 14 Sudeste 0 -- -- 83
2018-09-16 23:00:00 23.8 10 Sudeste 13 Sudeste 0 -- -- 86
2018-09-16 22:00:00 24 8 Este 10 Este 0 -- -- 85
2018-09-16 21:00:00 24.3 5 Sudeste 9 Sur 0 -- -- 83
2018-09-16 20:00:00 24.5 7 Sur 10 Sur 0 -- -- 82
2018-09-16 19:00:00 24.8 7 Sur 17 Sur 0 -- -- 79
2018-09-16 18:00:00 25.2 13 Sur 23 Sur 0 -- -- 76
2018-09-16 17:00:00 26 13 Sur 18 Sur 0 -- -- 71
2018-09-16 16:00:00 25.6 13 Sur 23 Sudoeste 0 -- -- 72
2018-09-16 15:00:00 25.1 17 Sur 22 Sur 0 -- -- 74
2018-09-16 14:00:00 25.5 15 Sur 18 Sur 0 -- -- 73
2018-09-16 13:00:00 25.5 10 Sur 15 Sur 0.1 -- -- 75
2018-09-16 12:00:00 25.2 9 Sur 13 Sudoeste 0 -- -- 73
2018-09-16 11:00:00 24.2 6 Sur 11 Sur 0 -- -- 75
2018-09-16 10:00:00 23.3 0 Calma 5 Este 0 -- -- 82
2018-09-16 09:00:00 22.1 0 Calma 8 Norte 0 -- -- 84
2018-09-16 08:00:00 21.7 4 Norte 8 Norte 0 -- -- 86
2018-09-16 07:00:00 21.6 2 Noroeste 7 Norte 0 -- -- 86
2018-09-16 06:00:00 21.7 5 Norte 9 Norte 0 -- -- 86
2018-09-16 05:00:00 22.1 0 Calma 8 Sudoeste 0 -- -- 86
2018-09-16 04:00:00 21.8 0 Calma 8 Norte 0 -- -- 83
2018-09-16 03:00:00 21.6 5 Norte 12 Norte 0 -- -- 83
2018-09-16 02:00:00 21.5 6 Norte 12 Norte 0 -- -- 83
2018-09-16 01:00:00 22.4 2 Nordeste 5 Nordeste 0.6 -- -- 76
2018-09-16 00:00:00 23.1 2 Este 5 Este 0 -- -- 69
2018-09-15 23:00:00 23 3 Este 8 Este 0 -- -- 69
2018-09-15 22:00:00 23.1 6 Sudeste 8 Este 0 -- -- 70
2018-09-15 21:00:00 22.9 3 Este 14 Sudeste 0 -- -- 70
2018-09-15 20:00:00 23.3 10 Sudeste 19 Sudeste 0 -- -- 74
2018-09-15 19:00:00 23.6 10 Este 15 Sudeste 0 -- -- 65
2018-09-15 18:00:00 23.8 11 Sudeste 18 Sudeste 0 -- -- 64
2018-09-15 17:00:00 23.8 14 Sudeste 21 Sudeste 0 -- -- 65
2018-09-15 16:00:00 24.2 15 Sudeste 21 Sudeste 0 -- -- 64
2018-09-15 15:00:00 24.5 14 Sudeste 20 Sudeste 0 -- -- 66
2018-09-15 14:00:00 25.2 14 Sudeste 18 Sudeste 0 -- -- 69
2018-09-15 13:00:00 26 9 Este 17 Este 0 -- -- 63
2018-09-15 12:00:00 25.5 12 Este 19 Este 0 -- -- 67
2018-09-15 11:00:00 24.3 11 Este 17 Este 0 -- -- 66
2018-09-15 10:00:00 23.8 11 Este 17 Nordeste 0 -- -- 69
2018-09-15 09:00:00 23.2 6 Nordeste 14 Nordeste 0 -- -- 74
2018-09-15 08:00:00 22.7 5 Norte 9 Nordeste 0 -- -- 77
2018-09-15 07:00:00 22.9 0 Calma 8 Sudoeste 0 -- -- 75
2018-09-15 06:00:00 22.7 4 Norte 13 Norte 0 -- -- 78
2018-09-15 05:00:00 22.4 7 Norte 15 Norte 0 -- -- 84
2018-09-15 04:00:00 22.6 8 Norte 13 Nordeste 0 -- -- 82
2018-09-15 03:00:00 22.8 7 Nordeste 13 Nordeste 0 -- -- 82
2018-09-15 02:00:00 23 7 Norte 11 Norte 0 -- -- 82
2018-09-15 01:00:00 22.7 8 Norte 14 Norte 0 -- -- 77
2018-09-15 00:00:00 23.5 5 Norte 10 Norte 0 -- -- 73
2018-09-14 23:00:00 23.8 5 Nordeste 11 Norte 0 -- -- 72
2018-09-14 22:00:00 24.3 6 Oeste 16 Sudoeste 0 -- -- 75
2018-09-14 21:00:00 24.2 8 Oeste 22 Sudoeste 0 -- -- 76
2018-09-14 20:00:00 24.6 13 Sudoeste 31 Sudoeste 0 -- -- 72
2018-09-14 19:00:00 25.4 17 Sudoeste 30 Sudoeste 0 -- -- 62
2018-09-14 18:00:00 25.7 18 Sudoeste 27 Sudoeste 0 -- -- 57
2018-09-14 17:00:00 25.6 19 Sudoeste 26 Sur 0 -- -- 59
2018-09-14 16:00:00 26 15 Sur 21 Sur 0 -- -- 71
2018-09-14 15:00:00 26.4 13 Sudeste 21 Sudeste 0 -- -- 75
2018-09-14 14:00:00 26 16 Sudeste 20 Sudeste 0 -- -- 72
2018-09-14 13:00:00 26.5 12 Sudeste 15 Sudeste 0 -- -- 70
2018-09-14 12:00:00 25.7 12 Sudeste 15 Este 0 -- -- 69
2018-09-14 11:00:00 25 10 Este 16 Este 0 -- -- 68
2018-09-14 10:00:00 23.7 8 Norte 13 Norte 0 -- -- 80
2018-09-14 09:00:00 22.2 9 Norte 15 Norte 0 -- -- 84
2018-09-14 08:00:00 21 9 Norte 16 Norte 0 -- -- 90
2018-09-14 07:00:00 21 8 Norte 15 Nordeste 0 -- -- 90
2018-09-14 06:00:00 21.6 4 Nordeste 8 Este 0 -- -- 90
2018-09-14 05:00:00 21.8 4 Nordeste 10 Nordeste 0 -- -- 90
2018-09-14 04:00:00 22.3 5 Norte 10 Oeste 0 -- -- 87
2018-09-14 03:00:00 23.1 6 Oeste 16 Oeste 0 -- -- 83
2018-09-14 02:00:00 23.4 6 Oeste 12 Oeste 0 -- -- 82
2018-09-14 01:00:00 23.5 7 Oeste 15 Oeste 0 -- -- 81
2018-09-14 00:00:00 23.7 9 Oeste 17 Oeste 0 -- -- 80
2018-09-13 23:00:00 23.8 12 Oeste 23 Oeste 0 -- -- 80
2018-09-13 22:00:00 24.1 9 Sudoeste 26 Oeste 0 -- -- 79
2018-09-13 21:00:00 24.3 17 Sudoeste 27 Sudoeste 0 -- -- 78
2018-09-13 20:00:00 24.5 15 Sudoeste 33 Sudoeste 0 -- -- 77
2018-09-13 19:00:00 25 20 Sudoeste 34 Sudoeste 0 -- -- 78
2018-09-13 18:00:00 25 25 Sudoeste 36 Sudoeste 0 -- -- 78
2018-09-13 17:00:00 25.5 24 Sudoeste 39 Sudoeste 0 -- -- 72
2018-09-13 16:00:00 25.9 21 Sudoeste 35 Sur 0 -- -- 72
2018-09-13 15:00:00 24.9 26 Sudoeste 36 Sudoeste 0 -- -- 74
2018-09-13 14:00:00 25.1 23 Sudoeste 34 Sudoeste 0 -- -- 73
2018-09-13 13:00:00 24.5 21 Sudoeste 27 Sudoeste 0 -- -- 72
2018-09-13 12:00:00 25.7 9 Sur 15 Sudeste 0 -- -- 63
2018-09-13 11:00:00 25.4 9 Este 17 Este 0 -- -- 66
2018-09-13 10:00:00 23.7 5 Nordeste 12 Nordeste 0 -- -- 72
2018-09-13 09:00:00 22 4 Norte 11 Norte 0 -- -- 79
2018-09-13 08:00:00 20.3 6 Norte 13 Norte 0 -- -- 86
2018-09-13 07:00:00 20.8 6 Norte 11 Norte 0 -- -- 83
2018-09-13 06:00:00 21.3 5 Noroeste 11 Norte 0 -- -- 83
2018-09-13 05:00:00 21.2 7 Norte 14 Norte 0 -- -- 82
2018-09-13 04:00:00 21.2 10 Norte 19 Norte 0 -- -- 82
2018-09-13 03:00:00 21.2 10 Norte 20 Norte 0 -- -- 83
2018-09-13 02:00:00 21.6 9 Noroeste 13 Norte 0 -- -- 82
2018-09-13 01:00:00 21.6 5 Norte 14 Norte 0 -- -- 80
2018-09-13 00:00:00 22.6 3 Norte 14 Oeste 0 -- -- 76
2018-09-12 23:00:00 22.5 8 Noroeste 26 Noroeste 0 -- -- 75
2018-09-12 22:00:00 21.8 10 Noroeste 18 Noroeste 0 -- -- 78
2018-09-12 21:00:00 21.6 9 Oeste 14 Noroeste 0.3 -- -- 86
2018-09-12 20:00:00 20.3 7 Oeste 58 Oeste 16.4 -- -- 89
2018-09-12 19:00:00 25 3 Noroeste 17 Noroeste 0 -- -- 90
2018-09-12 18:00:00 25.7 13 Sudeste 22 Este 0 -- -- 86
2018-09-12 17:00:00 26.3 19 Este 22 Sudeste 0 -- -- 84
2018-09-12 16:00:00 26.4 18 Sudeste 22 Sudeste 0 -- -- 82
2018-09-12 15:00:00 25.5 14 Este 19 Este 0 -- -- 87
2018-09-12 14:00:00 25.4 14 Este 21 Este 0 -- -- 86
2018-09-12 13:00:00 24.6 15 Este 19 Este 0 -- -- 87
2018-09-12 12:00:00 24.7 13 Este 21 Este 0 -- -- 83
2018-09-12 11:00:00 24.6 15 Este 22 Este 0 -- -- 76
2018-09-12 10:00:00 24.8 4 Nordeste 10 Norte 0 -- -- 70
2018-09-12 09:00:00 23.4 4 Norte 12 Norte 0 -- -- 69
2018-09-12 08:00:00 22.2 9 Norte 16 Norte 0 -- -- 70
2018-09-12 07:00:00 22.3 8 Norte 15 Norte 0 -- -- 73
2018-09-12 06:00:00 22.3 6 Norte 16 Norte 0 -- -- 76
2018-09-12 05:00:00 22.1 8 Norte 14 Norte 0 -- -- 79
2018-09-12 04:00:00 22.4 6 Norte 13 Norte 0 -- -- 79
2018-09-12 03:00:00 23 6 Norte 12 Norte 0 -- -- 80
2018-09-12 02:00:00 23.3 8 Norte 17 Este 0 -- -- 78
2018-09-12 01:00:00 23.7 15 Este 21 Este 0 -- -- 80
2018-09-12 00:00:00 23.9 8 Este 19 Este 0 -- -- 80
2018-09-11 23:00:00 23.7 15 Este 19 Este 0 -- -- 76
2018-09-11 22:00:00 24.1 4 Norte 9 Este 0 -- -- 71
2018-09-11 21:00:00 24.2 4 Este 10 Sudeste 0 -- -- 72
2018-09-11 20:00:00 24.7 9 Sudeste 17 Sudeste 0 -- -- 70
2018-09-11 19:00:00 25.6 14 Sudeste 19 Este 0 -- -- 67
2018-09-11 18:00:00 25.6 15 Este 19 Sudeste 0 -- -- 65
2018-09-11 17:00:00 26.2 13 Sudeste 18 Sudeste 0 -- -- 65
2018-09-11 16:00:00 26.5 14 Sudeste 19 Sudeste 0 -- -- 62
2018-09-11 15:00:00 27.4 12 Sudeste 19 Sudeste 0 -- -- 57
2018-09-11 14:00:00 28.2 10 Sur 15 Sur 0 -- -- 52
2018-09-11 13:00:00 28.1 8 Sur 13 Sudoeste 0 -- -- 49
2018-09-11 12:00:00 27.8 7 Sudeste 11 Este 0 -- -- 50
2018-09-11 11:00:00 27.3 5 Este 12 Norte 0 -- -- 50
2018-09-11 10:00:00 25 8 Norte 14 Norte 0 -- -- 63
2018-09-11 09:00:00 22.7 8 Norte 15 Norte 0 -- -- 74
2018-09-11 08:00:00 21.2 11 Norte 16 Norte 0 -- -- 79
2018-09-11 07:00:00 20.9 11 Norte 17 Norte 0 -- -- 82
2018-09-11 06:00:00 20.6 8 Norte 14 Norte 0 -- -- 85
2018-09-11 05:00:00 21.2 4 Norte 9 Norte 0 -- -- 83
2018-09-11 04:00:00 21.6 8 Norte 15 Norte 0 -- -- 82
2018-09-11 03:00:00 21.3 9 Norte 14 Norte 0 -- -- 83
2018-09-11 02:00:00 21.9 6 Norte 9 Norte 0 -- -- 82
2018-09-11 01:00:00 22.2 0 Calma 4 Este 0 -- -- 82
2018-09-11 00:00:00 22.5 2 Este 8 Nordeste 0 -- -- 81
2018-09-10 23:00:00 23.1 5 Norte 9 Norte 0 -- -- 75
2018-09-10 22:00:00 23.2 5 Sur 9 Sur 0 -- -- 77
2018-09-10 21:00:00 23 2 Sudoeste 9 Sudoeste 0 -- -- 79
2018-09-10 20:00:00 23.1 5 Sur 10 Sudoeste 0 -- -- 79
2018-09-10 19:00:00 24 7 Sudeste 13 Sudeste 0 -- -- 74
2018-09-10 18:00:00 24.1 7 Sur 12 Sur 0 -- -- 75
2018-09-10 17:00:00 24.2 8 Sur 15 Sudeste 0 -- -- 74
2018-09-10 16:00:00 24.2 10 Sur 13 Sur 0 -- -- 74
2018-09-10 15:00:00 24.5 10 Sur 14 Sur 0 -- -- 73
2018-09-10 14:00:00 24.5 7 Este 16 Este 0 -- -- 71
2018-09-10 13:00:00 24.3 12 Este -- -- -- -- -- 73
2018-09-10 12:00:00 23.6 9 Este 12 Este 0 -- -- 74
2018-09-10 11:00:00 23.3 4 Nordeste 10 Nordeste 0 -- -- 74
2018-09-10 10:00:00 22.5 6 Norte 13 Nordeste 0 -- -- 75
2018-09-10 09:00:00 22.1 7 Norte 11 Norte 0 -- -- 76
2018-09-10 08:00:00 21.6 6 Norte 12 Nordeste 0 -- -- 78
2018-09-10 07:00:00 21.9 7 Norte 15 Norte 0 -- -- 78
2018-09-10 06:00:00 21.5 8 Norte 14 Norte 0 -- -- 80
2018-09-10 05:00:00 21.4 8 Norte 13 Norte 0 -- -- 80
2018-09-10 04:00:00 21.5 7 Norte 12 Norte 0 -- -- 80
2018-09-10 03:00:00 21.5 8 Norte 16 Norte 0 -- -- 81
2018-09-10 02:00:00 21.9 8 Norte 18 Este 0 -- -- 81
2018-09-10 01:00:00 22.5 10 Nordeste 16 Norte 0 -- -- 81
2018-09-10 00:00:00 23 10 Nordeste 24 Este 0 -- -- 81
2018-09-09 23:00:00 23.3 15 Este 23 Este 0 -- -- 82
2018-09-09 22:00:00 23.6 14 Nordeste 20 Este 0 -- -- 82
2018-09-09 21:00:00 24.3 13 Este 16 Este 0 -- -- 82
2018-09-09 20:00:00 24.5 12 Este 15 Sudeste 0 -- -- 76
2018-09-09 19:00:00 25.4 13 Sudeste 22 Este 0 -- -- 73
2018-09-09 18:00:00 25.4 19 Sudeste 25 Sudeste 0 -- -- 70
2018-09-09 17:00:00 26 21 Sudeste 24 Sudeste 0 -- -- 68
2018-09-09 16:00:00 26.1 18 Sudeste 23 Este 0 -- -- 71
2018-09-09 15:00:00 25.5 16 Este 21 Este 0 -- -- 79
2018-09-09 14:00:00 25.8 18 Este 21 Este 0 -- -- 71
2018-09-09 13:00:00 26 14 Este 17 Este 0 -- -- 70
2018-09-09 12:00:00 26.8 6 Este 10 Este 0 -- -- 64
2018-09-09 11:00:00 24.3 4 Norte 8 Norte 0 -- -- 72
2018-09-09 10:00:00 24.2 2 Norte 8 Norte 0 -- -- 75
2018-09-09 09:00:00 22.9 6 Norte 12 Norte 0 -- -- 78
2018-09-09 08:00:00 22.2 6 Norte 13 Norte 0 -- -- 83
2018-09-09 07:00:00 22.2 8 Norte 12 Norte 0 -- -- 83
2018-09-09 06:00:00 22.2 6 Norte 12 Nordeste 0 -- -- 84
2018-09-09 05:00:00 22.4 6 Norte 10 Norte 0 -- -- 83
2018-09-09 04:00:00 22.5 6 Norte 14 Norte 0 -- -- 81
2018-09-09 03:00:00 22.6 8 Norte 13 Norte 0 -- -- 81
2018-09-09 02:00:00 23 5 Norte 7 Norte 0 -- -- 79
2018-09-09 01:00:00 23.7 2 Oeste 7 Oeste 0 -- -- 75
2018-09-09 00:00:00 24 4 Oeste 13 Sudoeste 0 -- -- 74
2018-09-08 23:00:00 23.9 9 Sudoeste 13 Sudoeste 0 -- -- 74
2018-09-08 22:00:00 24 8 Sudoeste 14 Sur 0 -- -- 74
2018-09-08 21:00:00 24.1 12 Sur 16 Sur 0 -- -- 74
2018-09-08 20:00:00 24.4 13 Sur 19 Sudoeste 0 -- -- 73
2018-09-08 19:00:00 24.7 15 Sudoeste 19 Sur 0 -- -- 72
2018-09-08 18:00:00 25.4 9 Sur 21 Sudoeste 0 -- -- 69
2018-09-08 17:00:00 25.2 15 Sur 20 Sur 0 -- -- 69
2018-09-08 16:00:00 25.5 13 Sur 19 Sur 0 -- -- 69
2018-09-08 15:00:00 26.3 12 Sur 20 Sudeste 0 -- -- 65
2018-09-08 14:00:00 26.4 14 Sudeste 20 Sudeste 0 -- -- 72
2018-09-08 13:00:00 25.3 17 Sudeste 22 Sudeste 0 -- -- 78
2018-09-08 12:00:00 25.8 10 Este 15 Este 0 -- -- 72
2018-09-08 11:00:00 25.2 9 Este 14 Este 0 -- -- 72
2018-09-08 10:00:00 24.2 5 Norte 13 Norte 0 -- -- 72
2018-09-08 09:00:00 22.1 8 Norte 14 Norte 0 -- -- 80
2018-09-08 08:00:00 20.6 7 Norte 13 Norte 0 -- -- 86
2018-09-08 07:00:00 20.5 8 Norte 15 Norte 0 -- -- 87
2018-09-08 06:00:00 20.7 9 Norte 13 Norte 0 -- -- 89
2018-09-08 05:00:00 21 8 Norte 11 Norte 0 -- -- 90
2018-09-08 04:00:00 21 5 Norte 10 Norte 0 -- -- 90
2018-09-08 03:00:00 20.9 7 Norte 14 Norte 0 -- -- 90
2018-09-08 02:00:00 20.9 6 Norte 18 Norte 0 -- -- 89
2018-09-08 01:00:00 20.4 10 Norte 21 Nordeste 0 -- -- 90
2018-09-08 00:00:00 20.6 3 Noroeste 32 Nordeste 0.9 -- -- 90
2018-09-07 23:00:00 22.7 3 Norte 28 Sur 0.4 -- -- 84
2018-09-07 22:00:00 24.1 22 Sur 32 Sur 0 -- -- 73
2018-09-07 21:00:00 24 19 Sur 28 Sur 0 -- -- 74
2018-09-07 20:00:00 24.1 19 Sur 27 Sudoeste 0 -- -- 73
2018-09-07 19:00:00 24 20 Sudoeste 30 Sudoeste 0 -- -- 74
2018-09-07 18:00:00 24.4 22 Sudoeste 30 Sudoeste 0 -- -- 72
2018-09-07 17:00:00 24.3 21 Sudoeste 31 Sudoeste 0 -- -- 74
2018-09-07 16:00:00 24.7 22 Sudoeste 30 Sudoeste 0 -- -- 74
2018-09-07 15:00:00 24.6 20 Sudoeste 28 Sudoeste 0 -- -- 71
2018-09-07 14:00:00 24.7 17 Sur 23 Sudoeste 0 -- -- 70
2018-09-07 13:00:00 24.5 14 Sur 19 Sur 0 -- -- 67
2018-09-07 12:00:00 25 12 Sur 16 Sudeste 0 -- -- 66
2018-09-07 11:00:00 24.9 4 Sudeste 15 Norte 0 -- -- 62
2018-09-07 10:00:00 24.2 5 Norte 17 Norte 0 -- -- 65
2018-09-07 09:00:00 22.2 6 Norte 13 Norte 0 -- -- 74
2018-09-07 08:00:00 20.3 6 Norte 13 Norte 0 -- -- 78
2018-09-07 07:00:00 20.4 7 Norte 14 Norte 0 -- -- 77
2018-09-07 06:00:00 20.4 8 Norte 15 Norte 0 -- -- 78
2018-09-07 05:00:00 20.3 7 Norte 13 Norte 0 -- -- 79
2018-09-07 04:00:00 20.4 9 Norte 13 Norte 0 -- -- 79
2018-09-07 03:00:00 20.5 8 Norte 13 Norte 0 -- -- 77
2018-09-07 02:00:00 21 6 Norte 10 Norte 0 -- -- 74
2018-09-07 01:00:00 20.8 8 Norte 14 Norte 0 -- -- 75
2018-09-07 00:00:00 21.2 6 Norte 10 Norte 0 -- -- 74
2018-09-06 23:00:00 21.4 5 Noroeste 13 Norte 0 -- -- 73
2018-09-06 22:00:00 21.4 7 Norte 18 Norte 0.1 -- -- 78
2018-09-06 21:00:00 22.8 0 Calma 22 Este 0.2 -- -- 71
2018-09-06 20:00:00 23.2 15 Este 36 Este 0 -- -- 67
2018-09-06 19:00:00 23.4 27 Este 35 Este 0.4 -- -- 68
2018-09-06 18:00:00 22.9 27 Este 34 Este 1.3 -- -- 75
2018-09-06 17:00:00 24.8 22 Sudeste 30 Este 0 -- -- 66
2018-09-06 16:00:00 25.8 18 Sudeste 24 Sudeste 0 -- -- 67
2018-09-06 15:00:00 25.7 14 Sudeste 21 Sudeste 0 -- -- 67
2018-09-06 14:00:00 25.5 14 Sudeste 21 Sudeste 0 -- -- 70
2018-09-06 13:00:00 25.5 15 Sudeste 19 Sudeste 0 -- -- 70
2018-09-06 12:00:00 25.2 6 Sudeste 12 Sudeste 0 -- -- 67
2018-09-06 11:00:00 24.6 7 Este 18 Este 0 -- -- 69
2018-09-06 10:00:00 23.5 6 Norte 20 Norte 0 -- -- 74
2018-09-06 09:00:00 21.8 10 Norte 17 Norte 0 -- -- 81
2018-09-06 08:00:00 20.4 8 Norte 15 Norte 0 -- -- 86
2018-09-06 07:00:00 20.5 7 Norte 14 Norte 0.1 -- -- 88
2018-09-06 06:00:00 20.3 7 Nordeste 16 Norte 0 -- -- 90
2018-09-06 05:00:00 19.9 9 Norte 18 Norte 2.6 -- -- 95
2018-09-06 04:00:00 19.3 6 Norte 50 Oeste 81.1 -- -- 97
2018-09-06 03:00:00 22.6 9 Norte 26 Nordeste 0.1 -- -- 80
2018-09-06 02:00:00 22.9 10 Norte 18 Norte 0 -- -- 79
2018-09-06 01:00:00 22.9 10 Norte 20 Norte 0 -- -- 82
2018-09-06 00:00:00 23.5 14 Nordeste 22 Este 0 -- -- 86
2018-09-05 23:00:00 23.7 10 Este 24 Este 0 -- -- 86
2018-09-05 22:00:00 23.8 16 Este 25 Este 0 -- -- 90
2018-09-05 21:00:00 23.8 21 Este 27 Este 0 -- -- 90
2018-09-05 20:00:00 24.4 18 Este 23 Este 0 -- -- 87
2018-09-05 19:00:00 24.3 13 Este 21 Este 0 -- -- 86
2018-09-05 18:00:00 24.5 14 Este 22 Este 0 -- -- 86
2018-09-05 17:00:00 24.8 17 Este 23 Este 0 -- -- 85
2018-09-05 16:00:00 25.5 16 Sudeste 22 Este 0 -- -- 80
2018-09-05 15:00:00 25.9 16 Sudeste 24 Este 0 -- -- 78
2018-09-05 14:00:00 25.7 15 Este 23 Este 0 -- -- 80
2018-09-05 13:00:00 25.1 21 Este 25 Este 0 -- -- 83
2018-09-05 12:00:00 25.5 16 Este 24 Este 0 -- -- 76
2018-09-05 11:00:00 25.3 16 Este 22 Este 0 -- -- 68
2018-09-05 10:00:00 24.6 8 Nordeste 14 Norte 0 -- -- 61
2018-09-05 09:00:00 23.8 6 Norte 18 Norte 0 -- -- 65
2018-09-05 08:00:00 21.9 9 Norte 18 Norte 0 -- -- 71
2018-09-05 07:00:00 21.5 8 Norte 16 Norte 0 -- -- 73
2018-09-05 06:00:00 21.6 9 Norte 17 Norte 0 -- -- 73
2018-09-05 05:00:00 21.9 8 Norte 15 Norte 0 -- -- 74
2018-09-05 04:00:00 22.1 8 Norte 13 Norte 0 -- -- 76
2018-09-05 03:00:00 22.5 7 Norte 10 Noroeste 0 -- -- 79
2018-09-05 02:00:00 22.7 5 Norte 8 Norte 0 -- -- 81
2018-09-05 01:00:00 22.9 5 Norte 13 Nordeste 0 -- -- 82
2018-09-05 00:00:00 23.1 8 Nordeste 19 Este 0 -- -- 83
2018-09-04 23:00:00 23.2 14 Este 18 Este 0 -- -- 89
2018-09-04 22:00:00 23.2 14 Este 21 Este 0 -- -- 87
2018-09-04 21:00:00 23.3 17 Este 28 Este 0 -- -- 87
2018-09-04 20:00:00 22.7 24 Este 30 Este 0 -- -- 86
2018-09-04 19:00:00 23.8 23 Este 29 Este 0 -- -- 85
2018-09-04 18:00:00 24.3 21 Este 28 Este 0 -- -- 83
2018-09-04 17:00:00 24.9 24 Este 28 Este 0 -- -- 82
2018-09-04 16:00:00 25.6 23 Este 28 Sudeste 0 -- -- 75
2018-09-04 15:00:00 25.8 24 Este 30 Sudeste 0 -- -- 74
2018-09-04 14:00:00 25.8 26 Sudeste 30 Sudeste 0 -- -- 75
2018-09-04 13:00:00 25.6 26 Sudeste 32 Sudeste 0 -- -- 76
2018-09-04 12:00:00 26.1 21 Este 27 Este 0 -- -- 69
2018-09-04 11:00:00 26.2 14 Este 16 Este 0 -- -- 79
2018-09-04 10:00:00 24.8 6 Nordeste 16 Nordeste 0 -- -- 81
2018-09-04 09:00:00 24.1 7 Nordeste 14 Norte 0 -- -- 85
2018-09-04 08:00:00 23.7 4 Norte 16 Este 0 -- -- 87
2018-09-04 07:00:00 24 9 Este 14 Este 0 -- -- 91
2018-09-04 06:00:00 23.8 9 Sudoeste 15 Sudoeste 0 -- -- 87
2018-09-04 05:00:00 23.9 2 Oeste 9 Norte 0 -- -- 82
2018-09-04 04:00:00 23.5 5 Norte 18 Noroeste 0 -- -- 84
2018-09-04 03:00:00 23.6 9 Norte 21 Norte 0 -- -- 86
2018-09-04 02:00:00 24.3 17 Este 26 Este 0 -- -- 89
2018-09-04 01:00:00 24.1 20 Este 27 Este 0 -- -- 91
2018-09-04 00:00:00 24.3 9 Sudeste 12 Sudeste 0 -- -- 90
2018-09-03 23:00:00 24.1 6 Sur 9 Sur 0 -- -- 89
2018-09-03 22:00:00 23.9 3 Este 22 Este 0 -- -- 89
2018-09-03 21:00:00 23.6 21 Este 30 Este 0 -- -- 89
2018-09-03 20:00:00 23.8 24 Este 34 Este 0 -- -- 90
2018-09-03 19:00:00 25.2 20 Este 28 Este 0 -- -- 88
2018-09-03 18:00:00 25.4 21 Sudoeste 30 Sudoeste 0 -- -- 80
2018-09-03 17:00:00 25.2 15 Sudeste 80 Este 0 -- -- 89
2018-09-03 16:00:00 25.5 24 Sudeste 29 Este 0 -- -- 85
2018-09-03 15:00:00 25.8 18 Este 26 Este 0 -- -- 83
2018-09-03 14:00:00 26.4 21 Sudeste 24 Sudeste 0 -- -- 82
2018-09-03 13:00:00 26.1 19 Sudeste 23 Sudeste 0 -- -- 82
2018-09-03 12:00:00 25.2 16 Sudeste 20 Sudeste 0 -- -- 83
2018-09-03 11:00:00 25.9 10 Este 13 Este 0 -- -- 78
2018-09-03 10:00:00 24.9 7 Este 12 Este 0 -- -- 79
2018-09-03 09:00:00 23.9 4 Norte 10 Norte 0 -- -- 80
2018-09-03 08:00:00 23.3 3 Nordeste 10 Norte 0 -- -- 80
2018-09-03 07:00:00 22.8 6 Norte 10 Norte 0 -- -- 79
2018-09-03 06:00:00 22.8 5 Norte 13 Norte 0 -- -- 79
2018-09-03 05:00:00 22.8 6 Norte 11 Norte 0 -- -- 79
2018-09-03 04:00:00 22.9 6 Norte 12 Norte 0 -- -- 81
2018-09-03 03:00:00 23 7 Nordeste 14 Nordeste 0 -- -- 85
2018-09-03 02:00:00 23.3 8 Nordeste 18 Este 0 -- -- 84
2018-09-03 01:00:00 23.3 14 Este 24 Este 0 -- -- 85
2018-09-03 00:00:00 23.6 15 Este 28 Este 0 -- -- 82
2018-09-02 23:00:00 23.6 24 Este 30 Este 0 -- -- 82
2018-09-02 22:00:00 23.7 24 Este 28 Este 0 -- -- 82
2018-09-02 21:00:00 23.9 22 Este 29 Este 0 -- -- 81
2018-09-02 20:00:00 24.1 25 Este 31 Este 0 -- -- 81
2018-09-02 19:00:00 24.4 21 Este 26 Este 0 -- -- 78
2018-09-02 18:00:00 25.4 21 Este 24 Sudeste 0 -- -- 73
2018-09-02 17:00:00 25.7 18 Este 25 Este 0 -- -- 66
2018-09-02 16:00:00 26.2 16 Sudeste 21 Este 0 -- -- 61
2018-09-02 15:00:00 26.3 14 Sudeste 18 Sudeste 0 -- -- 57
2018-09-02 14:00:00 26.3 10 Sudeste 19 Este 0 -- -- 54
2018-09-02 13:00:00 25.4 13 Este 20 Este 0 -- -- 54
2018-09-02 12:00:00 24.9 14 Este 23 Este 0 -- -- 56
2018-09-02 11:00:00 24.1 14 Este 25 Este 0 -- -- 59
2018-09-02 10:00:00 23.8 18 Este 25 Este 0 -- -- 58
2018-09-02 09:00:00 22.4 8 Nordeste 15 Nordeste 0 -- -- 60
2018-09-02 08:00:00 22 8 Norte 13 Norte 0 -- -- 56
2018-09-02 07:00:00 22 7 Norte 13 Norte 0 -- -- 62
2018-09-02 06:00:00 21.9 6 Norte 12 Norte 0 -- -- 78
2018-09-02 05:00:00 22.3 6 Norte 12 Norte 0 -- -- 77
2018-09-02 04:00:00 22.6 5 Norte 10 Norte 0 -- -- 77
2018-09-02 03:00:00 23.1 3 Nordeste 9 Este 0 -- -- 76
2018-09-02 02:00:00 23.6 0 Calma 8 Sudeste 0 -- -- 73
2018-09-02 01:00:00 23.7 2 Sudeste 10 Sur 0 -- -- 72
2018-09-02 00:00:00 23.6 5 Sur 14 Sudeste 0 -- -- 72
2018-09-01 23:00:00 23.5 10 Sudeste 19 Este 0 -- -- 71
2018-09-01 22:00:00 23.6 15 Sudeste 21 Sudeste 0 -- -- 72
2018-09-01 21:00:00 23.5 13 Sudeste 19 Sudeste 0 -- -- 73
2018-09-01 20:00:00 23.7 13 Sudeste 22 Sudeste 0 -- -- 73
2018-09-01 19:00:00 23.8 13 Sur 21 Sur 0 -- -- 70
2018-09-01 18:00:00 24 14 Sur 23 Sur 0 -- -- 69
2018-09-01 17:00:00 24.3 16 Sur 23 Sur 0 -- -- 66
2018-09-01 16:00:00 25 13 Sur 20 Sudeste 0 -- -- 66
2018-09-01 15:00:00 24.2 12 Sudeste 18 Sudeste 0 -- -- 68
2018-09-01 14:00:00 24.1 10 Sudeste 21 Sudeste 0 -- -- 69
2018-09-01 13:00:00 23.1 18 Sudeste 28 Este 0 -- -- 73
2018-09-01 12:00:00 22.8 11 Sudeste 31 Sudeste 1.3 -- -- 78
2018-09-01 11:00:00 23.2 25 Sudeste 32 Sudeste 0.1 -- -- 78
2018-09-01 10:00:00 23.8 16 Este 22 Este 0 -- -- 74
2018-09-01 09:00:00 23.2 3 Norte 9 Norte 0 -- -- 74
2018-09-01 08:00:00 22.7 2 Noroeste 6 Norte 0 -- -- 75
2018-09-01 07:00:00 22.6 0 Calma 7 Norte 0 -- -- 74
2018-09-01 06:00:00 22.7 4 Norte 8 Norte 0 -- -- 74
2018-09-01 05:00:00 22.5 5 Norte 12 Nordeste 0 -- -- 74
2018-09-01 04:00:00 23 2 Norte 9 Norte 0 -- -- 73
2018-09-01 03:00:00 23.5 0 Calma 5 Noroeste 0 -- -- 70
2018-09-01 02:00:00 23.7 0 Calma 8 Sur 0 -- -- 69
2018-09-01 01:00:00 23.8 6 Sur 13 Sur 0 -- -- 68
2018-09-01 00:00:00 23.9 7 Sudeste 18 Sudeste 0 -- -- 69
2018-08-31 23:00:00 24 11 Sudeste 15 Sudeste 0 -- -- 69
2018-08-31 22:00:00 23.9 9 Sudeste 14 Sudeste 0 -- -- 70
2018-08-31 21:00:00 23.9 12 Sudeste 17 Sudeste 0 -- -- 70
2018-08-31 20:00:00 23.8 5 Sur 13 Sur 0 -- -- 70
2018-08-31 19:00:00 23.6 9 Sur 17 Sur 0 -- -- 69
2018-08-31 18:00:00 23.6 13 Sur 21 Sur 0 -- -- 71
2018-08-31 17:00:00 23.3 12 Sur 20 Sudeste 0 -- -- 75
2018-08-31 16:00:00 23.4 13 Sudoeste 18 Sudoeste 0 -- -- 72
2018-08-31 15:00:00 23 7 Sur 17 Sur 0 -- -- 75
2018-08-31 14:00:00 22.6 10 Sur 25 Sur 0 -- -- 78
2018-08-31 13:00:00 22.4 9 Sudeste 22 Sudeste 0 -- -- 78
2018-08-31 12:00:00 22.3 14 Sudeste 21 Sur 0 -- -- 76
2018-08-31 11:00:00 21.8 7 Este 30 Este 0.1 -- -- 82
2018-08-31 10:00:00 21.2 23 Sudeste 37 Este 0.2 -- -- 89
2018-08-31 09:00:00 20.7 25 Este 45 Sudeste 14.2 -- -- 95
2018-08-31 08:00:00 21.2 26 Este 42 Este 0.6 -- -- 91
2018-08-31 07:00:00 21.6 28 Este 33 Este 2.8 -- -- 96
2018-08-31 06:00:00 21.7 2 Sudoeste 21 Sudoeste 4.8 -- -- 94
2018-08-31 05:00:00 23 6 Nordeste 24 Sudeste 1.4 -- -- 94
2018-08-31 04:00:00 23.2 19 Sudeste 23 Este 0 -- -- 93
2018-08-31 03:00:00 23.9 17 Este 22 Este 0 -- -- 86
2018-08-31 02:00:00 23.5 18 Sudeste 21 Sudeste 0.1 -- -- 89
2018-08-31 01:00:00 23.8 16 Este 19 Este 0 -- -- 85
2018-08-31 00:00:00 23.4 14 Este 28 Este 5.7 -- -- 88
2018-08-30 23:00:00 24.2 23 Este 27 Sudeste 0 -- -- 82
2018-08-30 22:00:00 24.6 19 Sudeste 27 Sudeste 0 -- -- 83
2018-08-30 21:00:00 24.3 18 Sur 28 Sur 0 -- -- 82
2018-08-30 20:00:00 24.5 14 Sur 26 Sur 0 -- -- 81
2018-08-30 19:00:00 24.8 18 Sur 27 Sur 0 -- -- 85
2018-08-30 18:00:00 25.7 23 Sudoeste 32 Sudoeste 0 -- -- 80
2018-08-30 17:00:00 26 22 Sudoeste 39 Sudoeste 0 -- -- 74
2018-08-30 16:00:00 26.5 27 Sudoeste 37 Sudoeste 0 -- -- 71
2018-08-30 15:00:00 26.7 28 Sudoeste 36 Sudoeste 0 -- -- 71
2018-08-30 14:00:00 26.6 25 Sudoeste 35 Sudoeste 0 -- -- 73
2018-08-30 13:00:00 26.5 21 Sur 29 Sudoeste 0 -- -- 77
2018-08-30 12:00:00 27 13 Sur 28 Sur 0 -- -- 71
2018-08-30 11:00:00 27 8 Sur 13 Sur 0 -- -- 64
2018-08-30 10:00:00 27.2 4 Sudeste 10 Este 0 -- -- 61
2018-08-30 09:00:00 26 3 Nordeste 7 Nordeste 0 -- -- 63
2018-08-30 08:00:00 24.4 0 Calma 7 Norte 0 -- -- 68
2018-08-30 07:00:00 23.6 5 Norte 8 Norte 0 -- -- 68
2018-08-30 06:00:00 23 3 Norte 12 Norte 0 -- -- 68
2018-08-30 05:00:00 23.3 5 Norte 10 Nordeste 0 -- -- 66
2018-08-30 04:00:00 23.9 5 Noroeste 14 Norte 0 -- -- 65
2018-08-30 03:00:00 24.2 8 Noroeste 18 Norte 0 -- -- 63
2018-08-30 02:00:00 23.9 9 Norte 15 Norte 0 -- -- 63
2018-08-30 01:00:00 24.2 6 Norte 13 Nordeste 0 -- -- 72
2018-08-30 00:00:00 24.3 0 Calma 8 Nordeste 0 -- -- 78
2018-08-29 23:00:00 24.7 6 Sudoeste 15 Sudeste 0 -- -- 79
2018-08-29 22:00:00 24.7 2 Oeste 7 Este 0 -- -- 77
2018-08-29 21:00:00 25 6 Este 19 Este 0 -- -- 76
2018-08-29 20:00:00 25.2 20 Este 25 Este 0 -- -- 75
2018-08-29 19:00:00 25.3 22 Este 27 Este 0 -- -- 78
2018-08-29 18:00:00 -- 23 Sudeste 32 Sudeste 0 -- -- --
2018-08-29 17:00:00 25.7 29 Sudeste 35 Sudeste 0.1 -- -- 84
2018-08-29 16:00:00 27 17 Sudeste 21 Sudeste 0 -- -- 80
2018-08-29 15:00:00 25.8 11 Este 26 Este 0 -- -- 85
2018-08-29 14:00:00 25.1 23 Este 27 Este 1.1 -- -- 92
2018-08-29 13:00:00 26.8 13 Este 17 Este 0 -- -- 82
2018-08-29 12:00:00 27.1 12 Este 13 Este 0 -- -- 79
2018-08-29 11:00:00 26.8 9 Este 12 Este 0 -- -- 77
2018-08-29 10:00:00 26.9 7 Este 9 Este 0 -- -- 78
2018-08-29 09:00:00 26.7 0 Calma 7 Noroeste 0 -- -- 71
2018-08-29 08:00:00 24.2 5 Noroeste 11 Norte 0 -- -- 77
2018-08-29 07:00:00 24.1 7 Nordeste 17 Nordeste 0 -- -- 78
2018-08-29 06:00:00 24.5 3 Nordeste 9 Norte 0 -- -- 80
2018-08-29 05:00:00 24.7 4 Oeste 17 Sudoeste 0 -- -- 79
2018-08-29 04:00:00 24.7 4 Oeste 18 Oeste 0 -- -- 81
2018-08-29 03:00:00 24.2 12 Oeste 40 Oeste 0.6 -- -- 89
2018-08-29 02:00:00 24.9 17 Oeste 29 Oeste 0 -- -- 83
2018-08-29 01:00:00 25 13 Oeste 29 Sudoeste 0 -- -- 86
2018-08-29 00:00:00 25.3 19 Oeste 36 Oeste 0 -- -- 83
2018-08-28 23:00:00 25.5 18 Oeste 34 Oeste 0 -- -- 82
2018-08-28 22:00:00 25.6 15 Sudoeste 36 Sudoeste 0 -- -- 81
2018-08-28 21:00:00 25.3 9 Sur 28 Sudoeste 0 -- -- 87
2018-08-28 20:00:00 25.6 18 Sudoeste 27 Oeste 0 -- -- 80
2018-08-28 19:00:00 26.3 20 Sudoeste 36 Sudoeste 0 -- -- 73
2018-08-28 18:00:00 26.8 14 Sudoeste 46 Sudoeste 0 -- -- 69
2018-08-28 17:00:00 27.4 28 Sudoeste 44 Sudoeste 0 -- -- 72
2018-08-28 16:00:00 27.5 26 Sudoeste 41 Sudoeste 0 -- -- 74
2018-08-28 15:00:00 27 27 Sudoeste 40 Sudoeste 0 -- -- 77
2018-08-28 14:00:00 26.5 26 Sudoeste 32 Sudoeste 0 -- -- 82
2018-08-28 13:00:00 26.3 26 Sudoeste 32 Sudoeste 0 -- -- 81
2018-08-28 12:00:00 26 23 Sudoeste 30 Sudoeste 0 -- -- 83
2018-08-28 11:00:00 27.3 9 Oeste 21 Sudoeste 0 -- -- 70
2018-08-28 10:00:00 26.4 12 Oeste 20 Oeste 0 -- -- 72
2018-08-28 09:00:00 25.6 6 Oeste 12 Oeste 0 -- -- 76
2018-08-28 08:00:00 24.2 6 Oeste 13 Oeste 0 -- -- 82
2018-08-28 07:00:00 23.8 5 Noroeste 12 Oeste 0 -- -- 84
2018-08-28 06:00:00 23.8 7 Oeste 14 Noroeste 0 -- -- 83
2018-08-28 05:00:00 23.9 6 Oeste 11 Noroeste 0 -- -- 82
2018-08-28 04:00:00 24.2 7 Oeste 13 Oeste 0 -- -- 80
2018-08-28 03:00:00 24.5 8 Oeste 10 Oeste 0 -- -- 80
2018-08-28 02:00:00 24.8 5 Oeste 11 Oeste 0 -- -- 79
2018-08-28 01:00:00 24.9 6 Oeste 13 Oeste 0 -- -- 78
2018-08-28 00:00:00 24.9 5 Oeste 9 Sudoeste 0 -- -- 84
2018-08-27 23:00:00 25.1 5 Oeste 13 Oeste 0 -- -- 87
2018-08-27 22:00:00 25.3 9 Sudoeste 17 Sudoeste 0 -- -- 86
2018-08-27 21:00:00 25.3 11 Sudoeste 20 Sudoeste 0 -- -- 88
2018-08-27 20:00:00 25.4 11 Sur 18 Sur 0 -- -- 87
2018-08-27 19:00:00 26 12 Sur 18 Sur 0 -- -- 84
2018-08-27 18:00:00 25.7 14 Sur 19 Sudeste 0 -- -- 86
2018-08-27 17:00:00 26 13 Sur 22 Sudeste 0 -- -- 82
2018-08-27 16:00:00 25.9 17 Sudeste 24 Sudeste 0 -- -- 79
2018-08-27 15:00:00 26.8 20 Sudeste 24 Sudeste 0 -- -- 66
2018-08-27 14:00:00 27.1 20 Sudeste 25 Sudeste 0 -- -- 63
2018-08-27 13:00:00 26.4 17 Este 21 Sudeste 0 -- -- 74
2018-08-27 12:00:00 26.1 13 Este 16 Este 0 -- -- 77
2018-08-27 11:00:00 25.6 10 Este 15 Este 0 -- -- 75
2018-08-27 10:00:00 24.7 6 Norte 19 Norte 0 -- -- 72
2018-08-27 09:00:00 22.6 10 Norte 15 Norte 0 -- -- 75
2018-08-27 08:00:00 22.2 7 Norte 13 Norte 0 -- -- 77
2018-08-27 07:00:00 22 6 Norte 13 Norte 0 -- -- 81
2018-08-27 06:00:00 22.2 7 Norte 12 Norte 0 -- -- 82
2018-08-27 05:00:00 22.2 7 Norte 12 Norte 0 -- -- 82
2018-08-27 04:00:00 22.3 6 Norte 11 Norte 0 -- -- 83
2018-08-27 03:00:00 22.5 7 Norte 12 Norte 0 -- -- 82
2018-08-27 02:00:00 22.8 6 Norte 10 Norte 0 -- -- 82
2018-08-27 01:00:00 23.6 5 Norte 8 Noroeste 0 -- -- 82
2018-08-27 00:00:00 24 4 Oeste 8 Oeste 0 -- -- 81
2018-08-26 23:00:00 24 5 Oeste 13 Sudoeste 0 -- -- 80
2018-08-26 22:00:00 24 8 Sudoeste 22 Sudoeste 0 -- -- 78
2018-08-26 21:00:00 24 16 Sudoeste 25 Sudoeste 0 -- -- 78
2018-08-26 20:00:00 23.9 16 Sudoeste 28 Sudoeste 0 -- -- 76
2018-08-26 19:00:00 23.8 23 Sudoeste 36 Sudoeste 0 -- -- 74
2018-08-26 18:00:00 23.6 28 Sudoeste 39 Sudoeste 0 -- -- 73
2018-08-26 17:00:00 23.6 26 Sudoeste 37 Sur 0 -- -- 73
2018-08-26 16:00:00 23.6 28 Sudoeste 35 Sur 0 -- -- 71
2018-08-26 15:00:00 23.5 27 Sudoeste 34 Sudoeste 0 -- -- 71
2018-08-26 14:00:00 22.9 22 Sudoeste 29 Sudoeste 0 -- -- 70
2018-08-26 13:00:00 22.5 20 Sudoeste 26 Sudoeste 0 -- -- 71
2018-08-26 12:00:00 22.3 13 Sudoeste 22 Sudoeste 0 -- -- 69
2018-08-26 11:00:00 22.2 4 Sudeste 12 Sudeste 0 -- -- 69
2018-08-26 10:00:00 21.5 2 Noroeste 11 Norte 0 -- -- 69
2018-08-26 09:00:00 21 5 Nordeste 14 Nordeste 0 -- -- 73
2018-08-26 08:00:00 21.5 5 Nordeste 9 Nordeste 0 -- -- 68
2018-08-26 07:00:00 21.5 6 Norte 10 Nordeste 0 -- -- 65
2018-08-26 06:00:00 21.6 5 Norte 12 Norte 0 -- -- 64
2018-08-26 05:00:00 21.9 5 Sudeste 12 Este 0 -- -- 69
2018-08-26 04:00:00 21.9 7 Este 13 Sudeste 0 -- -- 68
2018-08-26 03:00:00 22 8 Sudeste 18 Sudeste 0 -- -- 67
2018-08-26 02:00:00 22.3 13 Sudeste 21 Sudeste 0 -- -- 67
2018-08-26 01:00:00 22.3 14 Sudeste 24 Sudeste 0 -- -- 66
2018-08-26 00:00:00 22.4 13 Sudeste 21 Sudeste 0 -- -- 67
2018-08-25 23:00:00 22.3 14 Sudeste 24 Sudeste 0 -- -- 68
2018-08-25 22:00:00 22.3 19 Sudeste 29 Este 0 -- -- 68
2018-08-25 21:00:00 22.6 26 Sudeste 35 Sudeste 0 -- -- 68
2018-08-25 20:00:00 23 24 Sudeste 32 Sudeste 0 -- -- 70
2018-08-25 19:00:00 23.2 25 Sudeste 34 Sudeste 0 -- -- 72
2018-08-25 18:00:00 23.3 25 Sudeste 36 Sudeste 0 -- -- 74
2018-08-25 17:00:00 24.1 18 Sudeste 29 Sudeste 0 -- -- 73
2018-08-25 16:00:00 24.9 21 Sudeste 27 Sudeste 0 -- -- 70
2018-08-25 15:00:00 25.1 15 Sudeste 21 Sudeste 0 -- -- 66
2018-08-25 14:00:00 25.5 13 Sudeste 24 Sudeste 0 -- -- 65
2018-08-25 13:00:00 25 13 Sudeste 19 Sudeste 0 -- -- 66
2018-08-25 12:00:00 25.8 12 Sudeste 19 Sudeste 0 -- -- 58
2018-08-25 11:00:00 25.9 5 Sudeste 14 Nordeste 0 -- -- 56
2018-08-25 10:00:00 23.7 10 Nordeste 14 Nordeste 0 -- -- 51
2018-08-25 09:00:00 22.8 8 Norte 13 Norte 0 -- -- 55
2018-08-25 08:00:00 22.6 0 Calma 11 Noroeste 0 -- -- 64
2018-08-25 07:00:00 22.9 3 Sudeste 16 Este 0 -- -- 82
2018-08-25 06:00:00 23 13 Este 26 Este 0 -- -- 85
2018-08-25 05:00:00 23.2 17 Sudeste 32 Este 0 -- -- 85
2018-08-25 04:00:00 23.2 8 Nordeste 13 Nordeste 0 -- -- 83
2018-08-25 03:00:00 23.5 7 Nordeste 15 Nordeste 0 -- -- 84
2018-08-25 02:00:00 23.7 9 Nordeste 28 Este 0 -- -- 83
2018-08-25 01:00:00 24.5 6 Este 13 Sur 0 -- -- 79
2018-08-25 00:00:00 25 10 Sur 17 Sur 0 -- -- 75
2018-08-24 23:00:00 25.1 12 Sur 17 Sudeste 0 -- -- 75
2018-08-24 22:00:00 24.9 9 Este 15 Este 0 -- -- 83
2018-08-24 21:00:00 25 11 Este 18 Este 0 -- -- 81
2018-08-24 20:00:00 25.6 14 Este 16 Este 0 -- -- 75
2018-08-24 19:00:00 26.3 12 Sudeste 16 Sudeste 0 -- -- 69
2018-08-24 18:00:00 27.4 12 Sudeste 17 Sudeste 0 -- -- 65
2018-08-24 17:00:00 27.6 12 Sudeste 18 Sudeste 0 -- -- 62
2018-08-24 16:00:00 27.1 13 Sur 20 Sur 0 -- -- 63
2018-08-24 15:00:00 26.9 16 Sur 22 Sur 0 -- -- 65
2018-08-24 14:00:00 27.1 16 Sur 24 Sudoeste 0 -- -- 67
2018-08-24 13:00:00 28.4 13 Sur 19 Sudoeste 0 -- -- 61
2018-08-24 12:00:00 28.2 11 Sur 18 Sudeste 0 -- -- 55
2018-08-24 11:00:00 28.2 4 Nordeste 15 Noroeste 0 -- -- 52
2018-08-24 10:00:00 26.3 8 Noroeste 18 Norte 0 -- -- 57
2018-08-24 09:00:00 25.5 3 Sudeste 6 Este 0 -- -- 65
2018-08-24 08:00:00 23.6 5 Este 10 Norte 0 -- -- 69
2018-08-24 07:00:00 23 3 Norte 8 Norte 0 -- -- 71
2018-08-24 06:00:00 23.3 5 Norte 10 Norte 0 -- -- 69
2018-08-24 05:00:00 23.6 4 Norte 9 Norte 0 -- -- 68
2018-08-24 04:00:00 24 3 Norte 8 Norte 0 -- -- 68
2018-08-24 03:00:00 24.4 0 Calma 6 Este 0 -- -- 67
2018-08-24 02:00:00 25.3 0 Calma 8 Sudoeste 0 -- -- 74
2018-08-24 01:00:00 26.2 3 Nordeste 7 Nordeste 0 -- -- 60
2018-08-24 00:00:00 27 0 Calma 28 Norte 0 -- -- 56